createdAt,value
2022-07-26T00:00:57.865Z,14.93
2022-07-26T00:02:01.941Z,11.57
2022-07-26T00:03:05.771Z,12.68
2022-07-26T00:04:09.153Z,18.98
2022-07-26T00:05:11.722Z,16.80
2022-07-26T00:06:15.065Z,13.40
2022-07-26T00:07:18.224Z,13.38
2022-07-26T00:08:20.336Z,14.00
2022-07-26T00:09:24.524Z,13.70
2022-07-26T00:10:26.873Z,13.50
2022-07-26T00:11:33.620Z,14.13
2022-07-26T00:12:36.115Z,11.10
2022-07-26T00:13:39.566Z,12.32
2022-07-26T00:14:42.854Z,15.50
2022-07-26T00:15:46.057Z,11.43
2022-07-26T00:16:50.326Z,11.63
2022-07-26T00:17:52.577Z,13.98
2022-07-26T00:18:57.793Z,10.63
2022-07-26T00:20:00.256Z,13.90
2022-07-26T00:21:03.342Z,14.98
2022-07-26T00:22:24.070Z,12.43
2022-07-26T00:24:35.100Z,12.32
2022-07-26T00:25:38.573Z,12.43
2022-07-26T00:26:40.675Z,12.82
2022-07-26T00:27:43.735Z,10.93
2022-07-26T00:28:47.640Z,10.13
2022-07-26T00:29:50.924Z,9.15
2022-07-26T00:30:53.103Z,10.32
2022-07-26T00:31:56.788Z,12.27
2022-07-26T00:32:59.338Z,11.82
2022-07-26T00:34:03.856Z,12.90
2022-07-26T00:35:07.143Z,15.30
2022-07-26T00:36:10.582Z,12.27
2022-07-26T00:37:15.952Z,12.20
2022-07-26T00:38:22.955Z,10.35
2022-07-26T00:39:25.349Z,12.20
2022-07-26T00:40:28.776Z,8.02
2022-07-26T00:41:31.939Z,11.25
2022-07-26T00:42:35.982Z,12.20
2022-07-26T00:43:38.566Z,12.10
2022-07-26T00:44:46.812Z,9.43
2022-07-26T00:45:50.663Z,9.73
2022-07-26T00:46:54.297Z,13.07
2022-07-26T00:47:56.476Z,12.93
2022-07-26T00:49:00.387Z,9.82
2022-07-26T00:50:04.856Z,9.57
2022-07-26T00:51:08.034Z,14.82
2022-07-26T00:52:11.571Z,9.48
2022-07-26T00:53:15.520Z,8.85
2022-07-26T00:54:18.129Z,8.15
2022-07-26T00:55:21.962Z,11.68
2022-07-26T00:56:24.889Z,8.80
2022-07-26T00:57:28.321Z,11.35
2022-07-26T00:58:30.663Z,8.55
2022-07-26T00:59:34.543Z,9.45
2022-07-26T01:00:37.945Z,9.90
2022-07-26T01:01:42.239Z,11.43
2022-07-26T01:02:45.606Z,11.98
2022-07-26T01:03:53.493Z,13.00
2022-07-26T01:04:58.434Z,13.60
2022-07-26T01:06:03.417Z,13.20
2022-07-26T01:07:14.847Z,6.90
2022-07-26T01:08:18.693Z,14.25
2022-07-26T01:09:21.372Z,11.98
2022-07-26T01:10:25.270Z,13.38
2022-07-26T01:11:28.117Z,9.40
2022-07-26T01:12:31.403Z,10.95
2022-07-26T01:13:35.522Z,9.63
2022-07-26T01:14:42.977Z,10.30
2022-07-26T01:15:45.056Z,9.48
2022-07-26T01:16:48.264Z,11.35
2022-07-26T01:17:50.514Z,12.32
2022-07-26T01:18:55.817Z,12.30
2022-07-26T01:19:58.513Z,13.07
2022-07-26T01:21:13.452Z,9.40
2022-07-26T01:22:17.805Z,10.45
2022-07-26T01:23:22.433Z,11.02
2022-07-26T01:24:24.585Z,11.45
2022-07-26T01:25:31.647Z,12.48
2022-07-26T01:26:34.284Z,11.70
2022-07-26T01:27:42.576Z,11.07
2022-07-26T01:28:46.830Z,11.35
2022-07-26T01:29:54.077Z,11.00
2022-07-26T01:30:56.639Z,13.68
2022-07-26T01:32:00.025Z,13.07
2022-07-26T01:33:02.447Z,13.48
2022-07-26T01:34:11.131Z,17.60
2022-07-26T01:35:16.882Z,14.98
2022-07-26T01:36:20.546Z,16.50
2022-07-26T01:37:25.044Z,12.10
2022-07-26T01:38:28.033Z,10.48
2022-07-26T01:39:31.328Z,11.25
2022-07-26T01:40:34.235Z,11.63
2022-07-26T01:41:38.565Z,14.18
2022-07-26T01:42:41.608Z,12.88
2022-07-26T01:43:45.231Z,12.27
2022-07-26T01:44:48.398Z,11.98
2022-07-26T01:45:52.779Z,14.13
2022-07-26T01:46:55.239Z,13.18
2022-07-26T01:47:58.754Z,13.73
2022-07-26T01:49:02.105Z,14.18
2022-07-26T01:50:06.706Z,12.13
2022-07-26T01:51:08.917Z,12.32
2022-07-26T01:52:12.390Z,16.50
2022-07-26T01:53:16.213Z,13.73
2022-07-26T01:54:22.526Z,11.88
2022-07-26T01:55:27.541Z,10.88
2022-07-26T01:56:31.096Z,20.05
2022-07-26T01:57:33.150Z,13.90
2022-07-26T01:58:36.236Z,14.68
2022-07-26T01:59:38.329Z,14.63
2022-07-26T02:00:41.893Z,10.38
2022-07-26T02:01:44.315Z,18.02
2022-07-26T02:02:47.724Z,17.30
2022-07-26T02:03:50.848Z,15.52
2022-07-26T02:04:59.863Z,15.02
2022-07-26T02:06:03.727Z,13.90
2022-07-26T02:07:13.007Z,15.48
2022-07-26T02:08:18.140Z,16.50
2022-07-26T02:09:24.758Z,9.65
2022-07-26T02:10:50.789Z,19.58
2022-07-26T02:11:53.168Z,16.33
2022-07-26T02:12:56.505Z,13.38
2022-07-26T02:13:58.638Z,15.15
2022-07-26T02:15:02.331Z,18.02
2022-07-26T02:16:07.047Z,16.52
2022-07-26T02:17:10.719Z,13.82
2022-07-26T02:18:13.621Z,14.70
2022-07-26T02:19:17.215Z,12.77
2022-07-26T02:20:19.506Z,14.70
2022-07-26T02:21:22.880Z,15.75
2022-07-26T02:22:25.300Z,15.85
2022-07-26T02:23:30.771Z,14.43
2022-07-26T02:24:33.843Z,13.60
2022-07-26T02:25:36.968Z,14.27
2022-07-26T02:26:38.994Z,14.45
2022-07-26T02:27:43.347Z,13.52
2022-07-26T02:28:46.269Z,16.73
2022-07-26T02:29:49.765Z,15.88
2022-07-26T02:30:52.197Z,15.18
2022-07-26T02:31:56.074Z,14.25
2022-07-26T02:32:58.076Z,14.82
2022-07-26T02:34:01.451Z,18.83
2022-07-26T02:35:04.542Z,12.38
2022-07-26T02:36:08.984Z,14.73
2022-07-26T02:37:13.521Z,14.05
2022-07-26T02:38:20.266Z,14.85
2022-07-26T02:39:28.152Z,12.68
2022-07-26T02:40:31.485Z,17.15
2022-07-26T02:41:33.610Z,16.88
2022-07-26T02:42:36.813Z,19.55
2022-07-26T02:43:39.351Z,15.48
2022-07-26T02:44:43.115Z,16.58
2022-07-26T02:46:01.711Z,15.93
2022-07-26T02:47:05.941Z,20.60
2022-07-26T02:48:08.794Z,18.00
2022-07-26T02:49:12.994Z,15.32
2022-07-26T02:50:17.610Z,19.00
2022-07-26T02:51:21.151Z,18.45
2022-07-26T02:52:23.430Z,16.08
2022-07-26T02:53:26.639Z,17.05
2022-07-26T02:54:30.202Z,13.80
2022-07-26T02:55:33.502Z,14.77
2022-07-26T02:56:35.827Z,20.75
2022-07-26T02:57:45.413Z,16.13
2022-07-26T02:58:49.217Z,15.45
2022-07-26T02:59:52.630Z,18.70
2022-07-26T03:00:57.134Z,14.65
2022-07-26T03:01:59.672Z,17.45
2022-07-26T03:03:03.304Z,14.88
2022-07-26T03:04:07.907Z,16.48
2022-07-26T03:05:11.731Z,15.90
2022-07-26T03:06:13.869Z,20.55
2022-07-26T03:07:16.936Z,17.77
2022-07-26T03:08:20.181Z,23.17
2022-07-26T03:09:22.253Z,14.38
2022-07-26T03:10:26.771Z,17.02
2022-07-26T03:11:29.032Z,15.43
2022-07-26T03:12:32.641Z,21.00
2022-07-26T03:13:34.792Z,21.85
2022-07-26T03:14:37.905Z,24.50
2022-07-26T03:15:40.322Z,15.85
2022-07-26T03:16:43.728Z,18.38
2022-07-26T03:17:46.152Z,18.05
2022-07-26T03:18:49.914Z,16.27
2022-07-26T03:19:52.176Z,15.52
2022-07-26T03:20:55.405Z,12.02
2022-07-26T03:21:58.094Z,16.50
2022-07-26T03:23:01.443Z,15.35
2022-07-26T03:24:03.973Z,20.13
2022-07-26T03:25:07.664Z,14.07
2022-07-26T03:26:11.238Z,13.27
2022-07-26T03:27:14.285Z,16.92
2022-07-26T03:28:19.477Z,17.88
2022-07-26T03:29:23.828Z,17.67
2022-07-26T03:30:26.498Z,10.88
2022-07-26T03:31:29.900Z,17.83
2022-07-26T03:32:31.988Z,15.20
2022-07-26T03:33:35.141Z,17.60
2022-07-26T03:34:37.424Z,15.88
2022-07-26T03:35:40.467Z,17.52
2022-07-26T03:36:44.086Z,16.80
2022-07-26T03:37:47.356Z,15.75
2022-07-26T03:38:49.440Z,16.80
2022-07-26T03:39:52.766Z,16.90
2022-07-26T03:40:54.867Z,13.77
2022-07-26T03:41:59.463Z,13.55
2022-07-26T03:43:01.574Z,18.42
2022-07-26T03:44:06.701Z,18.90
2022-07-26T03:45:09.585Z,18.67
2022-07-26T03:46:12.650Z,12.60
2022-07-26T03:47:14.903Z,14.07
2022-07-26T03:48:17.980Z,11.10
2022-07-26T03:49:20.215Z,17.58
2022-07-26T03:50:23.398Z,18.23
2022-07-26T03:51:25.487Z,16.17
2022-07-26T03:52:28.604Z,20.42
2022-07-26T03:53:30.799Z,20.75
2022-07-26T03:54:33.953Z,14.40
2022-07-26T03:55:54.682Z,16.25
2022-07-26T03:56:58.069Z,22.02
2022-07-26T03:58:00.127Z,18.88
2022-07-26T03:59:05.976Z,15.15
2022-07-26T04:00:10.574Z,18.45
2022-07-26T04:01:12.822Z,17.75
2022-07-26T04:02:15.963Z,14.00
2022-07-26T04:03:19.412Z,17.55
2022-07-26T04:04:25.129Z,16.08
2022-07-26T04:05:28.041Z,20.08
2022-07-26T04:06:31.596Z,17.13
2022-07-26T04:07:33.720Z,17.70
2022-07-26T04:08:36.838Z,14.77
2022-07-26T04:09:39.906Z,20.65
2022-07-26T04:10:45.841Z,28.80
2022-07-26T04:11:49.172Z,19.63
2022-07-26T04:12:53.034Z,18.75
2022-07-26T04:13:56.086Z,23.80
2022-07-26T04:14:58.180Z,17.48
2022-07-26T04:16:03.530Z,23.45
2022-07-26T04:17:05.606Z,21.48
2022-07-26T04:18:08.820Z,20.20
2022-07-26T04:19:11.005Z,21.05
2022-07-26T04:20:14.212Z,15.55
2022-07-26T04:21:16.397Z,17.25
2022-07-26T04:22:19.548Z,17.00
2022-07-26T04:23:21.870Z,22.73
2022-07-26T04:24:25.549Z,22.75
2022-07-26T04:25:27.814Z,17.48
2022-07-26T04:26:43.630Z,19.88
2022-07-26T04:27:45.762Z,21.63
2022-07-26T04:28:50.232Z,16.70
2022-07-26T04:29:52.309Z,20.30
2022-07-26T04:30:55.453Z,15.07
2022-07-26T04:31:57.562Z,17.23
2022-07-26T04:33:00.556Z,23.45
2022-07-26T04:34:02.659Z,20.33
2022-07-26T04:35:06.428Z,14.25
2022-07-26T04:36:09.163Z,17.40
2022-07-26T04:37:12.218Z,13.63
2022-07-26T04:38:14.372Z,8.93
2022-07-26T04:39:17.389Z,9.55
2022-07-26T04:40:21.677Z,10.38
2022-07-26T04:41:26.971Z,6.63
2022-07-26T04:42:29.071Z,7.97
2022-07-26T04:43:32.288Z,8.50
2022-07-26T04:44:35.776Z,8.43
2022-07-26T04:45:39.216Z,8.50
2022-07-26T04:46:45.209Z,5.78
2022-07-26T04:47:50.753Z,7.90
2022-07-26T04:48:52.991Z,10.20
2022-07-26T04:49:56.201Z,6.45
2022-07-26T04:51:00.565Z,6.07
2022-07-26T04:52:02.672Z,8.07
2022-07-26T04:53:05.798Z,8.70
2022-07-26T04:54:08.267Z,5.72
2022-07-26T04:55:11.818Z,5.57
2022-07-26T04:56:14.503Z,6.18
2022-07-26T04:57:17.638Z,6.75
2022-07-26T04:58:20.766Z,6.47
2022-07-26T04:59:22.825Z,5.97
2022-07-26T05:00:27.437Z,7.22
2022-07-26T05:01:29.651Z,6.90
2022-07-26T05:02:32.924Z,8.13
2022-07-26T05:03:36.201Z,6.90
2022-07-26T05:04:38.208Z,6.10
2022-07-26T05:05:41.375Z,5.82
2022-07-26T05:06:43.545Z,5.35
2022-07-26T05:07:48.849Z,7.20
2022-07-26T05:08:50.854Z,4.68
2022-07-26T05:09:54.044Z,5.07
2022-07-26T05:10:57.663Z,5.28
2022-07-26T05:12:00.096Z,5.38
2022-07-26T05:13:04.017Z,8.00
2022-07-26T05:14:06.490Z,3.75
2022-07-26T05:15:13.977Z,7.82
2022-07-26T05:16:17.988Z,5.35
2022-07-26T05:17:22.167Z,7.57
2022-07-26T05:18:31.617Z,6.95
2022-07-26T05:19:34.162Z,5.63
2022-07-26T05:20:38.429Z,9.05
2022-07-26T05:21:40.604Z,8.38
2022-07-26T05:22:44.005Z,5.68
2022-07-26T05:23:46.068Z,7.38
2022-07-26T05:24:49.146Z,7.22
2022-07-26T05:25:51.288Z,8.38
2022-07-26T05:26:58.338Z,6.32
2022-07-26T05:28:02.622Z,6.45
2022-07-26T05:29:04.985Z,7.68
2022-07-26T05:30:09.645Z,8.90
2022-07-26T05:31:11.878Z,10.23
2022-07-26T05:32:16.736Z,6.20
2022-07-26T05:33:19.956Z,5.32
2022-07-26T05:34:24.420Z,5.70
2022-07-26T05:35:28.180Z,6.55
2022-07-26T05:36:30.645Z,10.90
2022-07-26T05:37:33.820Z,10.38
2022-07-26T05:38:35.909Z,7.00
2022-07-26T05:39:39.047Z,6.78
2022-07-26T05:40:41.190Z,6.90
2022-07-26T05:41:44.287Z,7.15
2022-07-26T05:42:46.750Z,5.75
2022-07-26T05:43:50.081Z,8.75
2022-07-26T05:44:52.622Z,5.80
2022-07-26T05:45:57.746Z,5.78
2022-07-26T05:47:00.249Z,9.23
2022-07-26T05:48:04.970Z,6.40
2022-07-26T05:49:07.877Z,5.63
2022-07-26T05:50:11.541Z,8.73
2022-07-26T05:51:13.575Z,10.07
2022-07-26T05:52:16.652Z,8.30
2022-07-26T05:53:18.756Z,7.78
2022-07-26T05:54:22.864Z,9.63
2022-07-26T05:55:25.082Z,6.97
2022-07-26T05:56:28.169Z,7.07
2022-07-26T05:57:30.985Z,10.57
2022-07-26T05:58:34.056Z,8.77
2022-07-26T05:59:36.140Z,9.32
2022-07-26T06:00:39.217Z,10.43
2022-07-26T06:01:41.980Z,12.38
2022-07-26T06:02:45.405Z,10.32
2022-07-26T06:03:49.035Z,9.10
2022-07-26T06:04:52.412Z,12.65
2022-07-26T06:05:56.834Z,13.02
2022-07-26T06:06:59.948Z,8.48
2022-07-26T06:08:01.931Z,7.75
2022-07-26T06:09:05.483Z,10.65
2022-07-26T06:10:08.397Z,8.88
2022-07-26T06:11:11.429Z,10.20
2022-07-26T06:12:14.514Z,11.32
2022-07-26T06:13:16.814Z,8.68
2022-07-26T06:14:20.061Z,9.80
2022-07-26T06:15:23.229Z,13.35
2022-07-26T06:16:25.329Z,10.70
2022-07-26T06:17:30.242Z,9.13
2022-07-26T06:18:32.744Z,13.88
2022-07-26T06:19:37.367Z,11.90
2022-07-26T06:20:39.994Z,10.73
2022-07-26T06:21:43.841Z,14.68
2022-07-26T06:22:45.894Z,11.02
2022-07-26T06:23:49.400Z,10.00
2022-07-26T06:24:51.595Z,9.40
2022-07-26T06:25:54.821Z,10.40
2022-07-26T06:27:04.932Z,12.95
2022-07-26T06:28:11.262Z,10.55
2022-07-26T06:29:13.666Z,9.27
2022-07-26T06:30:16.724Z,12.80
2022-07-26T06:31:18.934Z,13.07
2022-07-26T06:32:22.061Z,12.25
2022-07-26T06:33:24.133Z,10.60
2022-07-26T06:34:27.228Z,12.00
2022-07-26T06:35:32.101Z,9.45
2022-07-26T06:36:35.424Z,13.38
2022-07-26T06:37:38.030Z,10.70
2022-07-26T06:38:41.318Z,13.50
2022-07-26T06:39:46.362Z,12.15
2022-07-26T06:40:48.469Z,9.18
2022-07-26T06:41:51.590Z,8.55
2022-07-26T06:43:04.079Z,13.07
2022-07-26T06:44:09.154Z,13.13
2022-07-26T06:45:13.254Z,13.85
2022-07-26T06:46:17.013Z,15.85
2022-07-26T06:47:19.174Z,11.15
2022-07-26T06:48:22.318Z,9.27
2022-07-26T06:49:25.901Z,6.07
2022-07-26T06:50:28.249Z,9.63
2022-07-26T06:51:32.806Z,7.05
2022-07-26T06:52:34.955Z,6.38
2022-07-26T06:53:38.041Z,5.43
2022-07-26T06:54:40.096Z,6.22
2022-07-26T06:55:43.643Z,5.97
2022-07-26T06:56:48.000Z,7.00
2022-07-26T06:57:50.646Z,8.75
2022-07-26T06:58:55.230Z,6.05
2022-07-26T06:59:57.621Z,7.65
2022-07-26T07:01:00.749Z,3.88
2022-07-26T07:02:02.975Z,6.78
2022-07-26T07:03:05.996Z,5.00
2022-07-26T07:04:09.077Z,4.85
2022-07-26T07:05:13.007Z,5.25
2022-07-26T07:06:16.211Z,4.32
2022-07-26T07:07:20.787Z,6.55
2022-07-26T07:08:24.955Z,7.10
2022-07-26T07:09:27.291Z,4.65
2022-07-26T07:10:30.998Z,5.60
2022-07-26T07:11:33.017Z,6.25
2022-07-26T07:12:36.170Z,8.00
2022-07-26T07:13:39.303Z,8.15
2022-07-26T07:14:41.830Z,8.57
2022-07-26T07:15:44.851Z,5.78
2022-07-26T07:16:48.086Z,6.97
2022-07-26T07:17:51.660Z,8.48
2022-07-26T07:18:54.766Z,6.07
2022-07-26T07:19:56.863Z,4.80
2022-07-26T07:20:59.907Z,4.80
2022-07-26T07:22:02.147Z,7.22
2022-07-26T07:23:06.541Z,5.25
2022-07-26T07:24:09.636Z,6.57
2022-07-26T07:25:14.607Z,6.72
2022-07-26T07:26:16.919Z,7.68
2022-07-26T07:27:19.987Z,3.65
2022-07-26T07:28:22.990Z,6.57
2022-07-26T07:29:27.025Z,4.63
2022-07-26T07:30:31.341Z,5.93
2022-07-26T07:31:48.169Z,7.03
2022-07-26T07:32:52.710Z,5.85
2022-07-26T07:33:54.897Z,6.72
2022-07-26T07:34:58.196Z,6.28
2022-07-26T07:36:01.336Z,8.10
2022-07-26T07:37:04.790Z,5.43
2022-07-26T07:38:11.966Z,5.20
2022-07-26T07:39:17.432Z,4.68
2022-07-26T07:40:20.794Z,4.75
2022-07-26T07:41:23.976Z,4.15
2022-07-26T07:42:26.065Z,2.97
2022-07-26T07:43:29.266Z,3.83
2022-07-26T07:44:31.636Z,4.35
2022-07-26T07:45:34.914Z,4.47
2022-07-26T07:46:36.973Z,3.28
2022-07-26T07:47:40.176Z,8.00
2022-07-26T07:48:47.386Z,7.50
2022-07-26T07:49:51.061Z,6.00
2022-07-26T07:50:54.346Z,9.48
2022-07-26T07:51:56.439Z,7.95
2022-07-26T07:52:59.469Z,8.40
2022-07-26T07:54:06.402Z,7.15
2022-07-26T07:55:36.635Z,6.70
2022-07-26T07:56:34.457Z,5.82
2022-07-26T07:57:37.012Z,3.58
2022-07-26T07:58:40.428Z,5.03
2022-07-26T07:59:43.887Z,7.25
2022-07-26T08:00:48.089Z,5.82
2022-07-26T08:01:52.112Z,12.52
2022-07-26T08:02:54.741Z,4.15
2022-07-26T08:03:57.908Z,9.75
2022-07-26T08:05:11.442Z,4.00
2022-07-26T08:06:18.676Z,4.03
2022-07-26T08:07:21.828Z,5.60
2022-07-26T08:08:25.578Z,7.65
2022-07-26T08:09:29.879Z,7.82
2022-07-26T08:10:41.748Z,5.20
2022-07-26T08:11:54.781Z,9.13
2022-07-26T08:12:56.891Z,5.35
2022-07-26T08:14:00.063Z,4.32
2022-07-26T08:15:02.606Z,3.80
2022-07-26T08:16:10.980Z,6.78
2022-07-26T08:17:14.233Z,5.68
2022-07-26T08:18:16.709Z,8.43
2022-07-26T08:19:20.018Z,4.80
2022-07-26T08:20:25.973Z,6.30
2022-07-26T08:21:29.139Z,7.88
2022-07-26T08:22:32.569Z,8.02
2022-07-26T08:23:35.981Z,4.75
2022-07-26T08:24:40.646Z,7.30
2022-07-26T08:25:55.639Z,6.07
2022-07-26T08:27:00.375Z,8.63
2022-07-26T08:28:04.116Z,9.63
2022-07-26T08:29:07.265Z,4.93
2022-07-26T08:30:10.530Z,4.70
2022-07-26T08:31:14.235Z,6.88
2022-07-26T08:32:17.514Z,8.55
2022-07-26T08:33:19.599Z,7.32
2022-07-26T08:34:22.730Z,8.38
2022-07-26T08:35:24.911Z,5.03
2022-07-26T08:36:32.366Z,7.40
2022-07-26T08:37:36.158Z,6.65
2022-07-26T08:38:38.856Z,8.50
2022-07-26T08:39:43.326Z,9.18
2022-07-26T08:40:45.630Z,3.92
2022-07-26T08:41:48.912Z,7.65
2022-07-26T08:42:52.664Z,4.78
2022-07-26T08:43:55.975Z,4.63
2022-07-26T08:44:59.240Z,6.03
2022-07-26T08:46:03.280Z,3.33
2022-07-26T08:47:06.520Z,2.47
2022-07-26T08:48:17.789Z,3.30
2022-07-26T08:49:21.744Z,6.60
2022-07-26T08:50:24.541Z,4.38
2022-07-26T08:51:27.929Z,5.05
2022-07-26T08:52:31.111Z,3.47
2022-07-26T08:53:35.082Z,5.18
2022-07-26T08:54:37.692Z,4.72
2022-07-26T08:56:06.037Z,4.28
2022-07-26T08:57:05.300Z,3.20
2022-07-26T08:58:08.520Z,6.43
2022-07-26T08:59:20.623Z,3.90
2022-07-26T09:00:26.975Z,5.53
2022-07-26T09:01:29.380Z,4.82
2022-07-26T09:02:41.136Z,5.85
2022-07-26T09:03:45.089Z,7.85
2022-07-26T09:04:48.716Z,9.18
2022-07-26T09:05:50.768Z,4.88
2022-07-26T09:06:59.874Z,6.47
2022-07-26T09:08:23.625Z,4.57
2022-07-26T09:09:25.907Z,4.80
2022-07-26T09:10:29.263Z,8.88
2022-07-26T09:11:33.714Z,8.70
2022-07-26T09:12:37.781Z,3.00
2022-07-26T09:13:51.980Z,5.50
2022-07-26T09:14:55.659Z,8.93
2022-07-26T09:16:13.965Z,4.20
2022-07-26T09:17:18.801Z,6.68
2022-07-26T09:18:28.901Z,8.40
2022-07-26T09:19:32.063Z,4.05
2022-07-26T09:20:35.158Z,6.10
2022-07-26T09:21:37.194Z,3.28
2022-07-26T09:22:57.007Z,4.30
2022-07-26T09:23:59.921Z,4.18
2022-07-26T09:25:02.923Z,4.22
2022-07-26T09:26:05.306Z,5.07
2022-07-26T09:27:12.185Z,3.58
2022-07-26T09:28:23.919Z,5.93
2022-07-26T09:29:26.063Z,4.05
2022-07-26T09:30:30.223Z,4.63
2022-07-26T09:31:32.747Z,4.75
2022-07-26T09:32:36.895Z,4.50
2022-07-26T09:33:46.329Z,4.15
2022-07-26T09:34:54.339Z,6.32
2022-07-26T09:36:01.588Z,9.43
2022-07-26T09:37:07.377Z,5.22
2022-07-26T09:38:15.395Z,6.67
2022-07-26T09:39:17.648Z,4.68
2022-07-26T09:40:33.377Z,4.38
2022-07-26T09:42:54.406Z,5.78
2022-07-26T09:44:00.138Z,3.13
2022-07-26T09:45:02.650Z,5.43
2022-07-26T09:46:07.350Z,4.18
2022-07-26T09:47:09.818Z,5.80
2022-07-26T09:48:13.346Z,4.50
2022-07-26T09:49:20.078Z,7.53
2022-07-26T09:50:24.818Z,3.00
2022-07-26T09:51:40.484Z,4.25
2022-07-26T09:52:59.337Z,7.45
2022-07-26T09:54:02.371Z,5.25
2022-07-26T09:55:07.466Z,3.85
2022-07-26T09:56:09.517Z,5.05
2022-07-26T09:57:13.144Z,3.42
2022-07-26T09:58:19.155Z,7.03
2022-07-26T09:59:23.257Z,5.60
2022-07-26T10:00:26.739Z,8.25
2022-07-26T10:01:30.046Z,7.47
2022-07-26T10:02:33.008Z,3.42
2022-07-26T10:03:36.894Z,5.97
2022-07-26T10:04:39.212Z,4.30
2022-07-26T10:05:42.856Z,7.57
2022-07-26T10:06:45.286Z,5.05
2022-07-26T10:07:49.359Z,3.67
2022-07-26T10:08:52.008Z,6.57
2022-07-26T10:09:59.904Z,7.15
2022-07-26T10:11:05.442Z,7.85
2022-07-26T10:12:10.269Z,4.68
2022-07-26T10:13:12.973Z,5.15
2022-07-26T10:14:36.439Z,5.47
2022-07-26T10:15:44.490Z,5.85
2022-07-26T10:17:54.207Z,7.15
2022-07-26T10:18:57.989Z,4.95
2022-07-26T10:20:01.925Z,4.78
2022-07-26T10:21:20.505Z,4.25
2022-07-26T10:22:23.486Z,5.03
2022-07-26T10:23:51.168Z,7.82
2022-07-26T10:24:58.010Z,5.90
2022-07-26T10:26:02.333Z,5.13
2022-07-26T10:27:06.171Z,4.68
2022-07-26T10:28:24.102Z,8.07
2022-07-26T10:29:30.400Z,4.80
2022-07-26T10:30:35.299Z,10.10
2022-07-26T10:31:38.821Z,7.18
2022-07-26T10:32:43.457Z,5.53
2022-07-26T10:33:51.501Z,8.60
2022-07-26T10:35:59.343Z,6.40
2022-07-26T10:37:05.466Z,4.63
2022-07-26T10:38:09.777Z,7.90
2022-07-26T10:39:15.572Z,7.47
2022-07-26T10:40:21.053Z,7.32
2022-07-26T10:41:33.147Z,7.53
2022-07-26T10:42:46.153Z,6.63
2022-07-26T10:44:13.222Z,4.70
2022-07-26T10:45:24.345Z,6.43
2022-07-26T10:46:29.696Z,7.43
2022-07-26T10:47:35.369Z,7.35
2022-07-26T10:48:55.832Z,7.70
2022-07-26T10:50:00.898Z,7.82
2022-07-26T10:51:29.722Z,8.15
2022-07-26T10:52:34.008Z,10.45
2022-07-26T10:53:37.271Z,5.82
2022-07-26T10:55:09.005Z,7.45
2022-07-26T10:56:12.071Z,6.40
2022-07-26T10:57:14.111Z,7.60
2022-07-26T10:58:18.529Z,9.98
2022-07-26T10:59:54.422Z,5.95
2022-07-26T11:00:59.315Z,6.72
2022-07-26T11:02:02.171Z,7.88
2022-07-26T11:03:05.484Z,6.35
2022-07-26T11:04:19.031Z,7.07
2022-07-26T11:05:23.109Z,11.82
2022-07-26T11:06:31.147Z,9.15
2022-07-26T11:07:33.251Z,6.97
2022-07-26T11:08:36.940Z,7.95
2022-07-26T11:09:39.571Z,7.68
2022-07-26T11:10:44.027Z,8.68
2022-07-26T11:11:47.311Z,10.93
2022-07-26T11:12:59.852Z,12.15
2022-07-26T11:14:07.966Z,5.72
2022-07-26T11:15:17.961Z,10.55
2022-07-26T11:16:23.415Z,8.93
2022-07-26T11:17:29.473Z,9.43
2022-07-26T11:18:35.338Z,8.77
2022-07-26T11:19:39.893Z,14.02
2022-07-26T11:20:45.557Z,10.20
2022-07-26T11:21:56.559Z,7.97
2022-07-26T11:22:58.728Z,8.23
2022-07-26T11:24:04.426Z,9.45
2022-07-26T11:25:06.996Z,13.57
2022-07-26T11:26:16.211Z,8.98
2022-07-26T11:27:19.225Z,5.72
2022-07-26T11:28:23.593Z,8.52
2022-07-26T11:29:38.690Z,10.10
2022-07-26T11:30:56.257Z,7.18
2022-07-26T11:32:04.804Z,8.20
2022-07-26T11:33:18.777Z,11.80
2022-07-26T11:34:25.296Z,8.02
2022-07-26T11:35:30.128Z,9.60
2022-07-26T11:36:36.193Z,10.68
2022-07-26T11:37:40.725Z,9.25
2022-07-26T11:38:48.364Z,8.00
2022-07-26T11:39:51.433Z,8.82
2022-07-26T11:40:53.737Z,7.80
2022-07-26T11:41:59.254Z,8.48
2022-07-26T11:43:01.405Z,8.82
2022-07-26T11:44:05.969Z,10.05
2022-07-26T11:45:10.452Z,10.05
2022-07-26T11:46:13.566Z,11.75
2022-07-26T11:47:19.967Z,7.55
2022-07-26T11:48:22.108Z,8.32
2022-07-26T11:49:51.726Z,9.13
2022-07-26T11:50:49.552Z,10.13
2022-07-26T11:51:54.981Z,11.68
2022-07-26T11:52:58.501Z,11.27
2022-07-26T11:54:04.834Z,9.95
2022-07-26T11:55:09.075Z,8.57
2022-07-26T11:56:16.025Z,13.00
2022-07-26T11:57:20.619Z,7.65
2022-07-26T11:58:22.769Z,11.50
2022-07-26T11:59:28.366Z,9.93
2022-07-26T12:00:30.698Z,11.13
2022-07-26T12:01:33.951Z,9.75
2022-07-26T12:02:37.499Z,11.07
2022-07-26T12:03:41.704Z,8.82
2022-07-26T12:04:45.905Z,8.68
2022-07-26T12:06:02.604Z,11.82
2022-07-26T12:07:11.278Z,8.05
2022-07-26T12:08:14.781Z,7.15
2022-07-26T12:09:34.120Z,9.10
2022-07-26T12:10:37.239Z,13.63
2022-07-26T12:11:41.847Z,7.90
2022-07-26T12:12:45.005Z,9.10
2022-07-26T12:13:59.120Z,10.68
2022-07-26T12:15:04.642Z,6.90
2022-07-26T12:16:07.748Z,7.95
2022-07-26T12:17:15.095Z,10.38
2022-07-26T12:18:25.165Z,10.73
2022-07-26T12:19:29.886Z,5.50
2022-07-26T12:20:32.141Z,7.88
2022-07-26T12:21:48.203Z,8.30
2022-07-26T12:22:56.067Z,11.35
2022-07-26T12:23:59.665Z,7.55
2022-07-26T12:25:03.205Z,9.40
2022-07-26T12:26:19.014Z,8.38
2022-07-26T12:27:24.301Z,5.75
2022-07-26T12:28:41.436Z,6.55
2022-07-26T12:29:46.418Z,6.55
2022-07-26T12:30:49.248Z,6.60
2022-07-26T12:32:12.770Z,8.02
2022-07-26T12:33:14.988Z,9.05
2022-07-26T12:34:21.471Z,6.80
2022-07-26T12:35:32.312Z,7.97
2022-07-26T12:36:34.473Z,6.55
2022-07-26T12:37:41.018Z,6.75
2022-07-26T12:38:44.127Z,9.30
2022-07-26T12:40:08.093Z,9.98
2022-07-26T12:41:10.804Z,6.93
2022-07-26T12:42:33.021Z,8.98
2022-07-26T12:43:42.058Z,7.03
2022-07-26T12:44:44.310Z,9.38
2022-07-26T12:45:47.371Z,10.48
2022-07-26T12:46:49.538Z,8.52
2022-07-26T12:47:54.568Z,12.70
2022-07-26T12:49:00.205Z,11.65
2022-07-26T12:50:03.932Z,11.70
2022-07-26T12:51:07.525Z,8.27
2022-07-26T12:52:09.767Z,7.50
2022-07-26T12:53:13.070Z,9.02
2022-07-26T12:54:15.638Z,11.65
2022-07-26T12:55:22.210Z,7.78
2022-07-26T12:56:24.307Z,10.73
2022-07-26T12:57:27.802Z,9.85
2022-07-26T12:58:30.443Z,11.65
2022-07-26T12:59:33.734Z,8.75
2022-07-26T13:00:37.497Z,8.75
2022-07-26T13:01:39.761Z,12.15
2022-07-26T13:02:44.604Z,11.48
2022-07-26T13:03:47.403Z,10.60
2022-07-26T13:04:54.339Z,8.43
2022-07-26T13:06:00.222Z,9.50
2022-07-26T13:07:02.666Z,9.27
2022-07-26T13:08:06.155Z,6.35
2022-07-26T13:09:08.505Z,8.82
2022-07-26T13:11:37.044Z,11.15
2022-07-26T13:12:40.296Z,8.15
2022-07-26T13:13:42.333Z,9.93
2022-07-26T13:14:45.566Z,7.72
2022-07-26T13:15:47.877Z,8.88
2022-07-26T13:16:51.039Z,9.98
2022-07-26T13:17:54.222Z,5.22
2022-07-26T13:18:58.044Z,8.75
2022-07-26T13:20:01.236Z,9.88
2022-07-26T13:21:03.656Z,5.00
2022-07-26T13:22:08.613Z,4.18
2022-07-26T13:23:12.765Z,7.55
2022-07-26T13:24:18.910Z,8.85
2022-07-26T13:25:23.451Z,9.13
2022-07-26T13:26:28.995Z,9.48
2022-07-26T13:27:36.677Z,6.97
2022-07-26T13:28:40.640Z,7.65
2022-07-26T13:29:43.740Z,8.63
2022-07-26T13:30:45.901Z,7.30
2022-07-26T13:31:50.938Z,8.30
2022-07-26T13:32:53.928Z,5.07
2022-07-26T13:33:56.939Z,8.23
2022-07-26T13:34:59.979Z,10.63
2022-07-26T13:36:02.212Z,8.68
2022-07-26T13:37:08.434Z,9.38
2022-07-26T13:38:10.932Z,9.82
2022-07-26T13:39:14.063Z,9.15
2022-07-26T13:40:16.294Z,6.35
2022-07-26T13:41:19.345Z,6.30
2022-07-26T13:42:22.354Z,7.72
2022-07-26T13:43:25.808Z,6.82
2022-07-26T13:44:28.912Z,6.57
2022-07-26T13:45:30.968Z,7.60
2022-07-26T13:46:34.149Z,6.70
2022-07-26T13:47:36.557Z,8.40
2022-07-26T13:48:52.763Z,8.43
2022-07-26T13:50:02.810Z,7.47
2022-07-26T13:51:05.597Z,6.50
2022-07-26T13:52:12.155Z,7.53
2022-07-26T13:53:18.697Z,4.63
2022-07-26T13:54:22.082Z,5.47
2022-07-26T13:55:25.512Z,4.57
2022-07-26T13:56:28.517Z,6.88
2022-07-26T13:57:49.717Z,10.57
2022-07-26T13:58:56.095Z,7.15
2022-07-26T13:59:59.314Z,3.95
2022-07-26T14:01:02.780Z,5.53
2022-07-26T14:02:06.084Z,9.82
2022-07-26T14:03:08.530Z,7.55
2022-07-26T14:04:13.200Z,7.55
2022-07-26T14:05:16.597Z,7.60
2022-07-26T14:06:19.333Z,6.70
2022-07-26T14:07:22.370Z,8.32
2022-07-26T14:08:24.445Z,7.28
2022-07-26T14:09:27.477Z,4.60
2022-07-26T14:10:30.550Z,4.88
2022-07-26T14:11:32.692Z,6.25
2022-07-26T14:12:37.187Z,8.13
2022-07-26T14:13:40.233Z,9.90
2022-07-26T14:14:43.634Z,7.22
2022-07-26T14:15:46.661Z,6.18
2022-07-26T14:16:49.755Z,11.18